This is the latest recevied weather packets stored in our database for station/object WA4IKQ. If no packets are shown the sender has not sent any weather packets the latest 10 day(s).
| Time | Temp. | Humidity | Pressure | Rain* | Wind** | Luminosity | Snow |
|---|---|---|---|---|---|---|---|
| 1778084451 | 30.56° C | 45% | 1017.3 hPa | 0 mm | 2.24 m/s, 226° | - | - |
| 1778084199 | 30.56° C | 46% | 1017.4 hPa | 0 mm | 1.34 m/s, 156° | - | - |
| 1778084148 | 30.56° C | 46% | 1017.4 hPa | 0 mm | 1.34 m/s, 156° | - | - |
| 1778083985 | 30.56° C | 46% | 1017.4 hPa | 0 mm | 2.68 m/s, 194° | - | - |
| 1778083952 | 30.56° C | 46% | 1017.4 hPa | 0 mm | 2.68 m/s, 194° | - | - |
| 1778083845 | 30.56° C | 46% | 1017.4 hPa | 0 mm | 2.68 m/s, 194° | - | - |
| 1778083612 | 30.56° C | 46% | 1017.4 hPa | 0 mm | 1.34 m/s, 176° | - | - |
| 1778083317 | 30.56° C | 46% | 1017.3 hPa | 0 mm | 1.79 m/s, 113° | - | - |
| 1778083245 | 30.56° C | 46% | 1017.3 hPa | 0 mm | 1.79 m/s, 113° | - | - |
| 1778082751 | 30.56° C | 47% | 1017.4 hPa | 0 mm | 3.58 m/s, 142° | - | - |
| 1778082652 | 30.56° C | 47% | 1017.4 hPa | 0 mm | 3.58 m/s, 142° | - | - |
| 1778082160 | 30° C | 48% | 1017.4 hPa | 0 mm | 0.45 m/s, 55° | - | - |
| 1778082048 | 30° C | 48% | 1017.4 hPa | 0 mm | 0.45 m/s, 55° | - | - |
| 1778081806 | 30° C | 49% | 1017.4 hPa | 0 mm | 1.34 m/s, 91° | - | - |
| 1778081536 | 30° C | 49% | 1017.4 hPa | 0 mm | 3.13 m/s, 165° | - | - |
| 1778081224 | 30° C | 51% | 1017.4 hPa | 0 mm | 2.24 m/s, 145° | - | - |
| 1778080936 | 29.44° C | 51% | 1017.3 hPa | 0 mm | 0.89 m/s, 124° | - | - |
| 1778080851 | 29.44° C | 51% | 1017.3 hPa | 0 mm | 0.89 m/s, 124° | - | - |
| 1778080601 | 29.44° C | 52% | 1017.3 hPa | 0 mm | 2.24 m/s, 80° | - | - |
| 1778080349 | 29.44° C | 53% | 1017.4 hPa | 0 mm | 2.24 m/s, 120° | - | - |
| 1778079708 | 29.44° C | 55% | 1017.4 hPa | 0 mm | 0 m/s | - | - |
| 1778079443 | 28.89° C | 55% | 1017.4 hPa | 0 mm | 3.13 m/s, 170° | - | - |
| 1778079343 | 28.89° C | 55% | 1017.4 hPa | 0 mm | 3.13 m/s, 170° | - | - |
| 1778079132 | 28.89° C | 57% | 1017.4 hPa | 0 mm | 1.34 m/s, 155° | - | - |
| 1778079043 | 28.89° C | 57% | 1017.4 hPa | 0 mm | 1.34 m/s, 155° | - | - |
* Rain latest hour (hover to see other rain measurements)
** Current wind speed in m/s (hover to see current wind gust speed)